createdAt,value
2017-08-21T00:01:52.672Z,16.60
2017-08-21T00:04:20.188Z,16.60
2017-08-21T00:06:47.665Z,16.60
2017-08-21T00:09:15.136Z,16.50
2017-08-21T00:11:42.631Z,16.60
2017-08-21T00:14:10.104Z,16.50
2017-08-21T00:16:37.592Z,16.50
2017-08-21T00:19:05.088Z,16.50
2017-08-21T00:21:32.657Z,16.50
2017-08-21T00:24:00.149Z,16.50
2017-08-21T00:26:27.623Z,16.40
2017-08-21T00:28:55.107Z,16.40
2017-08-21T00:31:22.625Z,16.30
2017-08-21T00:33:50.116Z,16.40
2017-08-21T00:36:17.595Z,16.40
2017-08-21T00:38:45.163Z,16.40
2017-08-21T00:41:12.637Z,16.30
2017-08-21T00:43:40.104Z,16.30
2017-08-21T00:46:07.596Z,16.30
2017-08-21T00:48:35.071Z,16.30
2017-08-21T00:51:02.555Z,16.30
2017-08-21T00:53:30.124Z,16.30
2017-08-21T00:55:57.625Z,16.30
2017-08-21T00:58:25.096Z,16.30
2017-08-21T01:00:52.584Z,16.30
2017-08-21T01:03:20.076Z,16.20
2017-08-21T01:05:47.612Z,16.20
2017-08-21T01:08:15.101Z,16.20
2017-08-21T01:10:42.570Z,16.20
2017-08-21T01:13:10.212Z,16.20
2017-08-21T01:15:37.687Z,16.20
2017-08-21T01:18:05.163Z,16.20
2017-08-21T01:20:32.651Z,16.10
2017-08-21T01:23:00.128Z,16.00
2017-08-21T01:25:27.612Z,16.00
2017-08-21T01:27:55.214Z,16.00
2017-08-21T01:30:22.708Z,16.00
2017-08-21T01:32:50.185Z,16.00
2017-08-21T01:35:17.675Z,16.00
2017-08-21T01:37:45.163Z,16.00
2017-08-21T01:40:12.639Z,16.00
2017-08-21T01:42:40.125Z,16.00
2017-08-21T01:45:07.596Z,16.00
2017-08-21T01:47:35.091Z,16.00
2017-08-21T01:50:02.555Z,16.00
2017-08-21T01:52:30.032Z,16.00
2017-08-21T01:54:57.515Z,15.90
2017-08-21T01:57:24.992Z,15.90
2017-08-21T01:59:52.473Z,15.90
2017-08-21T02:02:19.944Z,15.90
2017-08-21T02:04:47.450Z,15.90
2017-08-21T02:07:14.932Z,15.90
2017-08-21T02:09:42.399Z,15.90
2017-08-21T02:12:09.893Z,15.80
2017-08-21T02:14:37.364Z,15.90
2017-08-21T02:17:04.863Z,15.90
2017-08-21T02:19:32.338Z,15.90
2017-08-21T02:21:59.834Z,15.90
2017-08-21T02:24:27.308Z,16.00
2017-08-21T02:26:54.783Z,16.00
2017-08-21T02:29:22.272Z,16.00
2017-08-21T02:31:49.855Z,16.00
2017-08-21T02:34:17.340Z,15.90
2017-08-21T02:36:44.811Z,16.00
2017-08-21T02:39:12.307Z,16.00
2017-08-21T02:41:39.789Z,16.00
2017-08-21T02:44:07.260Z,16.00
2017-08-21T02:46:34.747Z,15.90
2017-08-21T02:49:02.220Z,16.00
2017-08-21T02:51:29.708Z,16.00
2017-08-21T02:53:57.280Z,15.90
2017-08-21T02:56:24.756Z,15.90
2017-08-21T02:58:52.248Z,15.90
2017-08-21T03:01:19.715Z,15.90
2017-08-21T03:03:47.316Z,15.90
2017-08-21T03:06:14.787Z,15.80
2017-08-21T03:08:42.267Z,15.80
2017-08-21T03:11:09.751Z,15.70
2017-08-21T03:13:37.228Z,15.70
2017-08-21T03:16:04.708Z,15.70
2017-08-21T03:18:32.179Z,15.60
2017-08-21T03:20:59.667Z,15.60
2017-08-21T03:23:27.140Z,15.60
2017-08-21T03:25:54.636Z,15.60
2017-08-21T03:28:22.135Z,15.50
2017-08-21T03:30:49.604Z,15.40
2017-08-21T03:33:17.092Z,15.40
2017-08-21T03:35:44.564Z,15.40
2017-08-21T03:38:12.032Z,15.40
2017-08-21T03:40:39.519Z,15.30
2017-08-21T03:43:06.987Z,15.30
2017-08-21T03:45:34.467Z,15.30
2017-08-21T03:48:01.940Z,15.30
2017-08-21T03:50:29.415Z,15.30
2017-08-21T03:52:56.901Z,15.30
2017-08-21T03:55:24.374Z,15.30
2017-08-21T03:57:52.812Z,15.30
2017-08-21T04:00:21.053Z,15.30
2017-08-21T04:02:48.548Z,15.20
2017-08-21T04:05:16.029Z,15.20
2017-08-21T04:07:43.514Z,15.20
2017-08-21T04:10:11.003Z,15.20
2017-08-21T04:12:38.475Z,15.20
2017-08-21T04:15:05.959Z,15.20
2017-08-21T04:17:33.437Z,15.10
2017-08-21T04:20:00.920Z,15.10
2017-08-21T04:22:28.407Z,15.10
2017-08-21T04:24:55.883Z,15.10
2017-08-21T04:27:23.371Z,15.10
2017-08-21T04:29:50.844Z,15.10
2017-08-21T04:32:18.321Z,15.10
2017-08-21T04:34:45.807Z,15.10
2017-08-21T04:37:13.284Z,15.10
2017-08-21T04:39:40.764Z,15.00
2017-08-21T04:42:08.245Z,15.00
2017-08-21T04:44:35.724Z,15.00
2017-08-21T04:47:03.203Z,15.00
2017-08-21T04:49:30.676Z,15.00
2017-08-21T04:51:58.164Z,15.00
2017-08-21T04:54:25.672Z,15.00
2017-08-21T04:56:53.180Z,14.90
2017-08-21T04:59:20.684Z,14.80
2017-08-21T05:01:48.151Z,14.80
2017-08-21T05:04:15.645Z,14.70
2017-08-21T05:06:43.120Z,14.70
2017-08-21T05:09:10.635Z,14.70
2017-08-21T05:11:38.131Z,14.70
2017-08-21T05:14:05.603Z,14.70
2017-08-21T05:16:33.084Z,14.70
2017-08-21T05:19:00.558Z,14.70
2017-08-21T05:21:28.031Z,14.60
2017-08-21T05:23:55.528Z,14.60
2017-08-21T05:26:22.996Z,14.60
2017-08-21T05:28:50.492Z,14.60
2017-08-21T05:31:17.964Z,14.60
2017-08-21T05:33:45.453Z,14.60
2017-08-21T05:36:12.952Z,14.60
2017-08-21T05:38:40.427Z,14.60
2017-08-21T05:41:07.913Z,14.60
2017-08-21T05:43:35.387Z,14.60
2017-08-21T05:46:02.863Z,14.60
2017-08-21T05:48:30.352Z,14.60
2017-08-21T05:50:57.851Z,14.60
2017-08-21T05:53:25.340Z,14.70
2017-08-21T05:55:52.812Z,14.70
2017-08-21T05:58:20.286Z,14.70
2017-08-21T06:00:47.784Z,14.70
2017-08-21T06:03:15.255Z,14.70
2017-08-21T06:05:42.746Z,14.80
2017-08-21T06:08:10.220Z,14.80
2017-08-21T06:10:37.696Z,14.80
2017-08-21T06:13:05.188Z,14.90
2017-08-21T06:15:32.670Z,14.80
2017-08-21T06:18:00.159Z,15.00
2017-08-21T06:20:27.751Z,15.00
2017-08-21T06:22:55.222Z,15.00
2017-08-21T06:25:22.711Z,15.10
2017-08-21T06:27:50.183Z,15.10
2017-08-21T06:30:17.683Z,15.20
2017-08-21T06:32:45.157Z,15.20
2017-08-21T06:35:12.667Z,15.30
2017-08-21T06:37:40.159Z,15.40
2017-08-21T06:40:07.639Z,15.40
2017-08-21T06:42:35.140Z,15.40
2017-08-21T06:45:02.621Z,15.50
2017-08-21T06:47:30.108Z,15.50
2017-08-21T06:49:57.615Z,15.50
2017-08-21T06:52:25.100Z,15.50
2017-08-21T06:54:52.600Z,15.50
2017-08-21T06:57:20.087Z,15.60
2017-08-21T06:59:47.559Z,15.60
2017-08-21T07:02:15.042Z,15.60
2017-08-21T07:04:42.541Z,15.70
2017-08-21T07:07:10.128Z,15.80
2017-08-21T07:09:37.599Z,15.90
2017-08-21T07:12:05.068Z,15.90
2017-08-21T07:14:32.562Z,15.90
2017-08-21T07:17:00.044Z,15.90
2017-08-21T07:19:27.533Z,16.00
2017-08-21T07:21:55.001Z,16.00
2017-08-21T07:24:22.480Z,16.10
2017-08-21T07:26:49.964Z,16.20
2017-08-21T07:29:17.444Z,16.20
2017-08-21T07:31:44.953Z,16.30
2017-08-21T07:34:12.471Z,16.40
2017-08-21T07:36:39.940Z,16.50
2017-08-21T07:39:07.426Z,16.60
2017-08-21T07:41:34.901Z,16.70
2017-08-21T07:44:02.399Z,16.70
2017-08-21T07:46:29.893Z,16.70
2017-08-21T07:48:57.419Z,16.80
2017-08-21T07:51:24.911Z,16.80
2017-08-21T07:53:52.379Z,16.80
2017-08-21T07:56:19.867Z,16.90
2017-08-21T07:58:47.342Z,17.00
2017-08-21T08:01:14.868Z,17.10
2017-08-21T08:03:42.371Z,17.30
2017-08-21T08:06:09.836Z,17.40
2017-08-21T08:08:37.329Z,17.50
2017-08-21T08:11:04.797Z,17.60
2017-08-21T08:13:32.296Z,17.80
2017-08-21T08:15:59.783Z,18.10
2017-08-21T08:18:27.313Z,18.20
2017-08-21T08:20:54.808Z,18.40
2017-08-21T08:23:22.288Z,18.40
2017-08-21T08:25:49.904Z,18.50
2017-08-21T08:28:17.376Z,18.50
2017-08-21T08:30:44.860Z,18.50
2017-08-21T08:33:12.347Z,18.60
2017-08-21T08:35:39.820Z,18.70
2017-08-21T08:38:07.327Z,18.70
2017-08-21T08:40:34.795Z,18.70
2017-08-21T08:43:02.267Z,18.70
2017-08-21T08:45:29.778Z,18.80
2017-08-21T08:47:57.248Z,18.90
2017-08-21T08:50:24.746Z,19.00
2017-08-21T08:52:52.216Z,19.00
2017-08-21T08:55:19.737Z,19.10
2017-08-21T08:57:47.224Z,19.20
2017-08-21T09:00:14.712Z,19.20
2017-08-21T09:02:42.242Z,19.40
2017-08-21T09:05:09.726Z,19.50
2017-08-21T09:07:37.212Z,19.70
2017-08-21T09:10:04.741Z,19.70
2017-08-21T09:12:32.213Z,19.90
2017-08-21T09:14:59.707Z,19.90
2017-08-21T09:17:27.189Z,20.00
2017-08-21T09:19:54.696Z,20.00
2017-08-21T09:22:22.206Z,20.20
2017-08-21T09:24:49.691Z,20.30
2017-08-21T09:27:17.188Z,20.40
2017-08-21T09:29:44.670Z,20.40
2017-08-21T09:32:12.191Z,20.50
2017-08-21T09:34:39.665Z,20.50
2017-08-21T09:37:07.172Z,20.60
2017-08-21T09:39:34.695Z,20.60
2017-08-21T09:42:02.185Z,20.70
2017-08-21T09:44:29.691Z,20.70
2017-08-21T09:46:57.176Z,20.70
2017-08-21T09:49:24.677Z,20.80
2017-08-21T09:51:52.156Z,20.80
2017-08-21T09:54:19.659Z,20.90
2017-08-21T09:56:47.132Z,20.90
2017-08-21T09:59:14.628Z,21.00
2017-08-21T10:01:42.122Z,21.00
2017-08-21T10:04:09.599Z,21.00
2017-08-21T10:06:37.091Z,20.90
2017-08-21T10:09:04.576Z,20.80
2017-08-21T10:11:32.069Z,20.70
2017-08-21T10:13:59.548Z,20.70
2017-08-21T10:16:27.024Z,20.80
2017-08-21T10:18:54.527Z,21.10
2017-08-21T10:21:21.997Z,21.20
2017-08-21T10:23:49.500Z,21.20
2017-08-21T10:26:16.979Z,21.20
2017-08-21T10:28:44.512Z,21.30
2017-08-21T10:31:12.001Z,21.30
2017-08-21T10:33:39.470Z,21.40
2017-08-21T10:36:06.963Z,21.40
2017-08-21T10:38:34.445Z,21.40
2017-08-21T10:41:01.954Z,21.40
2017-08-21T10:43:29.423Z,21.50
2017-08-21T10:45:56.963Z,21.60
2017-08-21T10:48:24.456Z,21.70
2017-08-21T10:50:51.982Z,21.50
2017-08-21T10:53:19.471Z,21.50
2017-08-21T10:55:46.950Z,21.40
2017-08-21T10:58:14.440Z,21.40
2017-08-21T11:00:41.903Z,21.30
2017-08-21T11:03:09.473Z,21.10
2017-08-21T11:05:36.960Z,21.10
2017-08-21T11:08:04.427Z,21.10
2017-08-21T11:10:31.960Z,21.30
2017-08-21T11:12:59.460Z,21.30
2017-08-21T11:15:26.951Z,21.40
2017-08-21T11:17:54.445Z,21.70
2017-08-21T11:20:21.985Z,22.00
2017-08-21T11:22:49.458Z,22.20
2017-08-21T11:25:16.936Z,22.20
2017-08-21T11:27:44.421Z,22.10
2017-08-21T11:30:11.914Z,22.10
2017-08-21T11:32:39.424Z,22.30
2017-08-21T11:35:06.907Z,22.30
2017-08-21T11:37:34.410Z,22.00
2017-08-21T11:40:01.889Z,22.00
2017-08-21T11:42:29.357Z,21.90
2017-08-21T11:44:56.847Z,21.90
2017-08-21T11:47:24.327Z,22.00
2017-08-21T11:49:51.820Z,21.90
2017-08-21T11:52:19.300Z,21.80
2017-08-21T11:54:46.903Z,21.80
2017-08-21T11:57:14.376Z,21.90
2017-08-21T11:59:41.856Z,21.90
2017-08-21T12:02:09.343Z,21.90
2017-08-21T12:04:36.811Z,21.80
2017-08-21T12:07:04.308Z,21.70
2017-08-21T12:09:31.784Z,21.60
2017-08-21T12:11:59.299Z,21.50
2017-08-21T12:14:26.804Z,21.70
2017-08-21T12:16:54.399Z,22.10
2017-08-21T12:19:21.885Z,22.10
2017-08-21T12:21:49.424Z,22.40
2017-08-21T12:24:16.911Z,22.70
2017-08-21T12:26:44.415Z,22.70
2017-08-21T12:29:11.924Z,22.80
2017-08-21T12:31:39.401Z,23.00
2017-08-21T12:34:06.879Z,23.00
2017-08-21T12:36:34.471Z,22.90
2017-08-21T12:39:01.948Z,22.70
2017-08-21T12:41:30.110Z,22.70
2017-08-21T12:43:57.580Z,22.80
2017-08-21T12:46:25.090Z,22.90
2017-08-21T12:48:52.570Z,22.90
2017-08-21T12:51:20.113Z,23.40
2017-08-21T12:53:47.689Z,23.50
2017-08-21T12:56:15.159Z,23.60
2017-08-21T12:58:42.651Z,23.80
2017-08-21T13:01:10.133Z,24.30
2017-08-21T13:03:37.651Z,24.60
2017-08-21T13:06:05.128Z,25.00
2017-08-21T13:08:32.601Z,25.00
2017-08-21T13:11:00.090Z,25.10
2017-08-21T13:13:27.567Z,25.20
2017-08-21T13:15:55.084Z,25.30
2017-08-21T13:18:22.564Z,25.90
2017-08-21T13:20:50.089Z,26.30
2017-08-21T13:23:17.568Z,26.20
2017-08-21T13:25:45.044Z,26.30
2017-08-21T13:28:12.527Z,26.10
2017-08-21T13:30:40.004Z,26.10
2017-08-21T13:33:07.500Z,26.40
2017-08-21T13:35:34.972Z,26.30
2017-08-21T13:38:02.475Z,26.50
2017-08-21T13:40:29.952Z,26.60
2017-08-21T13:42:57.431Z,26.60
2017-08-21T13:45:24.928Z,26.60
2017-08-21T13:47:52.515Z,26.90
2017-08-21T13:50:20.005Z,26.80
2017-08-21T13:52:47.493Z,27.00
2017-08-21T13:55:15.093Z,27.30
2017-08-21T13:57:42.608Z,27.10
2017-08-21T14:00:10.081Z,27.30
2017-08-21T14:02:37.597Z,27.10
2017-08-21T14:05:05.087Z,26.90
2017-08-21T14:07:32.587Z,26.80
2017-08-21T14:10:00.079Z,27.20
2017-08-21T14:12:27.583Z,27.30
2017-08-21T14:14:55.056Z,27.30
2017-08-21T14:17:22.531Z,27.50
2017-08-21T14:19:50.022Z,27.50
2017-08-21T14:22:17.494Z,27.10
2017-08-21T14:24:45.040Z,26.70
2017-08-21T14:27:12.515Z,26.20
2017-08-21T14:29:40.003Z,25.80
2017-08-21T14:32:07.528Z,25.60
2017-08-21T14:34:35.008Z,25.50
2017-08-21T14:37:02.509Z,25.40
2017-08-21T14:39:29.991Z,25.40
2017-08-21T14:41:57.480Z,25.10
2017-08-21T14:44:25.011Z,24.80
2017-08-21T14:46:52.511Z,24.70
2017-08-21T14:49:19.987Z,24.70
2017-08-21T14:51:47.473Z,24.70
2017-08-21T14:54:15.003Z,24.60
2017-08-21T14:56:42.560Z,24.50
2017-08-21T14:59:10.075Z,24.50
2017-08-21T15:01:37.547Z,24.40
2017-08-21T15:04:05.112Z,24.50
2017-08-21T15:06:32.601Z,24.40
2017-08-21T15:09:00.071Z,24.30
2017-08-21T15:11:27.576Z,24.10
2017-08-21T15:13:55.060Z,24.20
2017-08-21T15:16:22.525Z,24.20
2017-08-21T15:18:50.007Z,24.30
2017-08-21T15:21:17.516Z,24.30
2017-08-21T15:23:45.022Z,24.30
2017-08-21T15:26:12.538Z,24.40
2017-08-21T15:28:40.059Z,24.40
2017-08-21T15:31:07.535Z,24.30
2017-08-21T15:33:35.007Z,24.10
2017-08-21T15:36:02.508Z,24.10
2017-08-21T15:38:30.007Z,24.00
2017-08-21T15:40:57.516Z,23.90
2017-08-21T15:43:24.991Z,23.90
2017-08-21T15:45:52.503Z,23.90
2017-08-21T15:48:19.989Z,23.90
2017-08-21T15:50:47.507Z,23.80
2017-08-21T15:53:15.009Z,23.80
2017-08-21T15:55:42.485Z,23.70
2017-08-21T15:58:10.027Z,23.70
2017-08-21T16:00:37.532Z,23.70
2017-08-21T16:03:05.036Z,23.70
2017-08-21T16:05:32.507Z,23.60
2017-08-21T16:08:00.044Z,23.50
2017-08-21T16:10:27.533Z,23.50
2017-08-21T16:12:55.009Z,23.50
2017-08-21T16:15:22.495Z,23.40
2017-08-21T16:17:50.004Z,23.30
2017-08-21T16:20:17.497Z,23.20
2017-08-21T16:22:45.081Z,23.20
2017-08-21T16:25:12.555Z,23.20
2017-08-21T16:27:40.133Z,23.10
2017-08-21T16:30:07.604Z,23.10
2017-08-21T16:32:35.096Z,23.00
2017-08-21T16:35:02.572Z,22.80
2017-08-21T16:37:30.062Z,22.80
2017-08-21T16:39:57.541Z,22.80
2017-08-21T16:42:25.019Z,22.70
2017-08-21T16:44:52.499Z,22.70
2017-08-21T16:47:19.988Z,22.70
2017-08-21T16:49:47.491Z,22.70
2017-08-21T16:52:15.737Z,22.60
2017-08-21T16:54:43.231Z,22.60
2017-08-21T16:57:10.702Z,22.60
2017-08-21T16:59:38.202Z,22.60
2017-08-21T17:02:05.738Z,22.50
2017-08-21T17:04:33.252Z,22.50
2017-08-21T17:07:00.893Z,22.40
2017-08-21T17:09:28.367Z,22.40
2017-08-21T17:11:55.875Z,22.30
2017-08-21T17:14:23.348Z,22.30
2017-08-21T17:16:50.828Z,22.40
2017-08-21T17:19:18.316Z,22.40
2017-08-21T17:21:45.785Z,22.30
2017-08-21T17:24:13.287Z,22.40
2017-08-21T17:26:40.767Z,22.30
2017-08-21T17:29:08.275Z,22.30
2017-08-21T17:31:35.756Z,22.20
2017-08-21T17:34:03.236Z,22.10
2017-08-21T17:36:30.744Z,22.00
2017-08-21T17:38:58.221Z,21.90
2017-08-21T17:41:25.716Z,21.90
2017-08-21T17:43:53.191Z,21.90
2017-08-21T17:46:20.696Z,21.70
2017-08-21T17:48:48.177Z,21.60
2017-08-21T17:51:15.668Z,21.50
2017-08-21T17:53:43.194Z,21.50
2017-08-21T17:56:10.665Z,21.50
2017-08-21T17:58:38.186Z,21.40
2017-08-21T18:01:05.695Z,21.40
2017-08-21T18:03:33.223Z,21.40
2017-08-21T18:06:00.719Z,21.30
2017-08-21T18:08:28.202Z,21.20
2017-08-21T18:10:55.711Z,21.20
2017-08-21T18:13:23.205Z,21.10
2017-08-21T18:15:50.700Z,21.10
2017-08-21T18:18:18.290Z,21.10
2017-08-21T18:20:45.818Z,21.00
2017-08-21T18:23:13.312Z,21.00
2017-08-21T18:25:40.787Z,20.90
2017-08-21T18:28:08.284Z,20.90
2017-08-21T18:30:35.844Z,20.90
2017-08-21T18:33:03.352Z,20.90
2017-08-21T18:35:30.838Z,20.80
2017-08-21T18:37:58.336Z,20.80
2017-08-21T18:40:25.875Z,20.80
2017-08-21T18:42:53.347Z,20.80
2017-08-21T18:45:20.834Z,20.70
2017-08-21T18:47:48.317Z,20.70
2017-08-21T18:50:15.800Z,20.60
2017-08-21T18:52:43.308Z,20.60
2017-08-21T18:55:10.816Z,20.50
2017-08-21T18:57:38.279Z,20.40
2017-08-21T19:00:05.748Z,20.40
2017-08-21T19:02:33.248Z,20.40
2017-08-21T19:05:00.746Z,20.40
2017-08-21T19:07:28.240Z,20.40
2017-08-21T19:09:55.708Z,20.30
2017-08-21T19:15:00.688Z,20.30
2017-08-21T19:17:28.194Z,20.20
2017-08-21T19:19:55.671Z,20.10
2017-08-21T19:22:23.163Z,20.00
2017-08-21T19:24:50.667Z,20.00
2017-08-21T19:27:18.148Z,20.10
2017-08-21T19:29:45.635Z,20.00
2017-08-21T19:32:13.118Z,20.00
2017-08-21T19:34:40.619Z,20.00
2017-08-21T19:37:08.098Z,19.90
2017-08-21T19:39:35.568Z,20.00
2017-08-21T19:42:03.084Z,19.90
2017-08-21T19:44:30.586Z,19.90
2017-08-21T19:46:58.079Z,19.90
2017-08-21T19:49:25.555Z,19.80
2017-08-21T19:51:53.067Z,19.80
2017-08-21T19:54:20.557Z,19.80
2017-08-21T19:56:48.026Z,19.70
2017-08-21T19:59:15.537Z,19.60
2017-08-21T20:01:43.015Z,19.60
2017-08-21T20:04:10.543Z,19.50
2017-08-21T20:06:38.019Z,19.50
2017-08-21T20:09:05.487Z,19.40
2017-08-21T20:11:32.971Z,19.50
2017-08-21T20:14:00.444Z,19.40
2017-08-21T20:16:28.034Z,19.40
2017-08-21T20:18:55.508Z,19.40
2017-08-21T20:21:23.015Z,19.30
2017-08-21T20:23:50.610Z,19.30
2017-08-21T20:26:18.076Z,19.30
2017-08-21T20:28:45.592Z,19.30
2017-08-21T20:31:13.095Z,19.30
2017-08-21T20:33:40.591Z,19.20
2017-08-21T20:36:08.072Z,19.10
2017-08-21T20:38:35.575Z,19.20
2017-08-21T20:41:03.078Z,19.00
2017-08-21T20:43:30.579Z,18.90
2017-08-21T20:45:58.118Z,18.90
2017-08-21T20:48:25.596Z,18.80
2017-08-21T20:50:53.083Z,18.80
2017-08-21T20:53:20.564Z,18.80
2017-08-21T20:55:48.135Z,18.80
2017-08-21T20:58:15.636Z,18.70
2017-08-21T21:00:43.116Z,18.70
2017-08-21T21:03:10.630Z,18.70
2017-08-21T21:05:38.133Z,18.70
2017-08-21T21:08:05.619Z,18.60
2017-08-21T21:10:33.124Z,18.50
2017-08-21T21:13:00.625Z,18.50
2017-08-21T21:15:28.096Z,18.50
2017-08-21T21:17:55.620Z,18.50
2017-08-21T21:20:23.103Z,18.40
2017-08-21T21:22:50.580Z,18.40
2017-08-21T21:25:18.076Z,18.40
2017-08-21T21:27:45.565Z,18.30
2017-08-21T21:30:13.040Z,18.30
2017-08-21T21:32:40.756Z,18.30
2017-08-21T21:35:08.251Z,18.30
2017-08-21T21:37:35.735Z,18.20
2017-08-21T21:40:03.244Z,18.20
2017-08-21T21:42:30.735Z,18.30
2017-08-21T21:44:58.207Z,18.20
2017-08-21T21:47:25.687Z,18.30
2017-08-21T21:49:53.243Z,18.20
2017-08-21T21:52:20.712Z,18.20
2017-08-21T21:54:48.206Z,18.20
2017-08-21T21:57:15.746Z,18.20
2017-08-21T21:59:43.252Z,18.10
2017-08-21T22:02:10.723Z,18.10
2017-08-21T22:04:38.196Z,18.10
2017-08-21T22:07:05.685Z,18.00
2017-08-21T22:09:33.154Z,18.00
2017-08-21T22:12:00.647Z,17.90
2017-08-21T22:14:28.126Z,17.90
2017-08-21T22:16:55.626Z,17.80
2017-08-21T22:19:23.113Z,17.80
2017-08-21T22:21:50.589Z,17.70
2017-08-21T22:24:18.189Z,17.60
2017-08-21T22:26:45.682Z,17.60
2017-08-21T22:29:13.168Z,17.60
2017-08-21T22:31:40.637Z,17.50
2017-08-21T22:34:08.131Z,17.50
2017-08-21T22:36:35.605Z,17.40
2017-08-21T22:39:35.483Z,17.30
2017-08-21T22:42:02.963Z,17.30
2017-08-21T22:44:30.439Z,17.20
2017-08-21T22:46:57.928Z,17.20
2017-08-21T22:49:25.399Z,17.10
2017-08-21T22:51:52.880Z,17.10
2017-08-21T22:54:20.360Z,17.10
2017-08-21T22:56:47.855Z,17.00
2017-08-21T22:59:15.332Z,16.90
2017-08-21T23:01:42.799Z,16.90
2017-08-21T23:04:10.378Z,16.80
2017-08-21T23:06:37.868Z,16.70
2017-08-21T23:09:05.352Z,16.70
2017-08-21T23:11:32.824Z,16.60
2017-08-21T23:14:00.349Z,16.50
2017-08-21T23:16:27.816Z,16.50
2017-08-21T23:18:55.283Z,16.40
2017-08-21T23:21:22.788Z,16.40
2017-08-21T23:23:50.264Z,16.40
2017-08-21T23:26:17.772Z,16.40
2017-08-21T23:28:45.271Z,16.30
2017-08-21T23:31:13.781Z,16.30
2017-08-21T23:33:41.248Z,16.30
2017-08-21T23:36:08.722Z,16.20
2017-08-21T23:38:36.209Z,16.20
2017-08-21T23:41:03.686Z,16.10
2017-08-21T23:43:31.173Z,16.10
2017-08-21T23:45:58.652Z,16.10
2017-08-21T23:48:26.152Z,16.10
2017-08-21T23:50:53.619Z,16.10
2017-08-21T23:53:21.235Z,16.00
2017-08-21T23:55:48.803Z,16.00
2017-08-21T23:58:16.267Z,16.00
